sensor_id;sensor_type;location;lat;lon;timestamp;P1;durP1;ratioP1;P2;durP2;ratioP2
67747;SDS011;54543;50.712;6.070;2024-02-16T00:00:59;4.55;;;2.03;;
67747;SDS011;54543;50.712;6.070;2024-02-16T00:03:25;2.72;;;1.88;;
67747;SDS011;54543;50.712;6.070;2024-02-16T00:05:52;3.00;;;2.00;;
67747;SDS011;54543;50.712;6.070;2024-02-16T00:08:18;3.10;;;1.80;;
67747;SDS011;54543;50.712;6.070;2024-02-16T00:10:45;2.97;;;1.98;;
67747;SDS011;54543;50.712;6.070;2024-02-16T00:13:10;2.80;;;1.90;;
67747;SDS011;54543;50.712;6.070;2024-02-16T00:15:37;2.55;;;1.60;;
67747;SDS011;54543;50.712;6.070;2024-02-16T00:18:06;2.47;;;1.67;;
67747;SDS011;54543;50.712;6.070;2024-02-16T00:20:32;2.88;;;1.85;;
67747;SDS011;54543;50.712;6.070;2024-02-16T00:22:58;2.53;;;1.75;;
67747;SDS011;54543;50.712;6.070;2024-02-16T00:25:25;3.58;;;2.30;;
67747;SDS011;54543;50.712;6.070;2024-02-16T00:27:51;3.33;;;2.17;;
67747;SDS011;54543;50.712;6.070;2024-02-16T00:30:18;4.10;;;2.40;;
67747;SDS011;54543;50.712;6.070;2024-02-16T00:32:44;3.10;;;2.08;;
67747;SDS011;54543;50.712;6.070;2024-02-16T00:35:10;5.65;;;3.13;;
67747;SDS011;54543;50.712;6.070;2024-02-16T00:37:36;3.42;;;2.30;;
67747;SDS011;54543;50.712;6.070;2024-02-16T00:40:03;3.97;;;2.13;;
67747;SDS011;54543;50.712;6.070;2024-02-16T00:42:29;4.10;;;2.30;;
67747;SDS011;54543;50.712;6.070;2024-02-16T00:44:56;2.90;;;1.92;;
67747;SDS011;54543;50.712;6.070;2024-02-16T00:47:22;3.92;;;2.40;;
67747;SDS011;54543;50.712;6.070;2024-02-16T00:49:49;3.42;;;1.90;;
67747;SDS011;54543;50.712;6.070;2024-02-16T00:52:14;3.00;;;1.80;;
67747;SDS011;54543;50.712;6.070;2024-02-16T00:54:40;3.88;;;2.10;;
67747;SDS011;54543;50.712;6.070;2024-02-16T00:57:05;2.97;;;2.05;;
67747;SDS011;54543;50.712;6.070;2024-02-16T00:59:31;3.63;;;2.28;;
67747;SDS011;54543;50.712;6.070;2024-02-16T01:01:57;4.32;;;2.28;;
67747;SDS011;54543;50.712;6.070;2024-02-16T01:04:23;3.72;;;2.53;;
67747;SDS011;54543;50.712;6.070;2024-02-16T01:06:48;3.55;;;2.50;;
67747;SDS011;54543;50.712;6.070;2024-02-16T01:09:14;3.35;;;2.20;;
67747;SDS011;54543;50.712;6.070;2024-02-16T01:11:41;4.25;;;2.53;;
67747;SDS011;54543;50.712;6.070;2024-02-16T01:14:06;3.75;;;2.15;;
67747;SDS011;54543;50.712;6.070;2024-02-16T01:16:32;2.83;;;2.03;;
67747;SDS011;54543;50.712;6.070;2024-02-16T01:18:58;3.92;;;2.15;;
67747;SDS011;54543;50.712;6.070;2024-02-16T01:21:23;2.15;;;1.80;;
67747;SDS011;54543;50.712;6.070;2024-02-16T01:23:49;3.53;;;1.80;;
67747;SDS011;54543;50.712;6.070;2024-02-16T01:26:14;1.95;;;1.63;;
67747;SDS011;54543;50.712;6.070;2024-02-16T01:28:40;2.80;;;1.67;;
67747;SDS011;54543;50.712;6.070;2024-02-16T01:31:06;1.92;;;1.40;;
67747;SDS011;54543;50.712;6.070;2024-02-16T01:33:31;2.10;;;1.42;;
67747;SDS011;54543;50.712;6.070;2024-02-16T01:36:00;2.42;;;1.30;;
67747;SDS011;54543;50.712;6.070;2024-02-16T01:38:25;2.22;;;1.60;;
67747;SDS011;54543;50.712;6.070;2024-02-16T01:40:51;3.78;;;1.85;;
67747;SDS011;54543;50.712;6.070;2024-02-16T01:43:20;2.15;;;1.30;;
67747;SDS011;54543;50.712;6.070;2024-02-16T01:45:46;2.25;;;1.55;;
67747;SDS011;54543;50.712;6.070;2024-02-16T01:48:12;2.10;;;1.13;;
67747;SDS011;54543;50.712;6.070;2024-02-16T01:50:44;2.30;;;1.48;;
67747;SDS011;54543;50.712;6.070;2024-02-16T01:53:14;2.55;;;1.33;;
67747;SDS011;54543;50.712;6.070;2024-02-16T01:55:44;2.47;;;1.20;;
67747;SDS011;54543;50.712;6.070;2024-02-16T01:58:11;2.60;;;1.30;;
67747;SDS011;54543;50.712;6.070;2024-02-16T02:00:36;2.45;;;1.30;;
67747;SDS011;54543;50.712;6.070;2024-02-16T02:03:02;3.08;;;1.50;;
67747;SDS011;54543;50.712;6.070;2024-02-16T02:05:28;3.35;;;1.60;;
67747;SDS011;54543;50.712;6.070;2024-02-16T02:07:54;2.95;;;1.50;;
67747;SDS011;54543;50.712;6.070;2024-02-16T02:10:20;3.45;;;1.40;;
67747;SDS011;54543;50.712;6.070;2024-02-16T02:12:47;2.58;;;1.30;;
67747;SDS011;54543;50.712;6.070;2024-02-16T02:15:12;2.97;;;1.50;;
67747;SDS011;54543;50.712;6.070;2024-02-16T02:17:38;2.10;;;1.50;;
67747;SDS011;54543;50.712;6.070;2024-02-16T02:20:04;2.40;;;1.50;;
67747;SDS011;54543;50.712;6.070;2024-02-16T02:22:33;1.73;;;1.27;;
67747;SDS011;54543;50.712;6.070;2024-02-16T02:24:58;2.92;;;1.50;;
67747;SDS011;54543;50.712;6.070;2024-02-16T02:27:24;3.17;;;1.45;;
67747;SDS011;54543;50.712;6.070;2024-02-16T02:29:50;2.05;;;1.35;;
67747;SDS011;54543;50.712;6.070;2024-02-16T02:32:16;2.13;;;1.52;;
67747;SDS011;54543;50.712;6.070;2024-02-16T02:34:42;2.17;;;1.40;;
67747;SDS011;54543;50.712;6.070;2024-02-16T02:37:08;2.40;;;1.50;;
67747;SDS011;54543;50.712;6.070;2024-02-16T02:39:34;2.17;;;1.30;;
67747;SDS011;54543;50.712;6.070;2024-02-16T02:42:00;2.03;;;1.30;;
67747;SDS011;54543;50.712;6.070;2024-02-16T02:44:25;1.92;;;1.25;;
67747;SDS011;54543;50.712;6.070;2024-02-16T02:46:51;2.53;;;1.80;;
67747;SDS011;54543;50.712;6.070;2024-02-16T02:49:17;2.10;;;1.67;;
67747;SDS011;54543;50.712;6.070;2024-02-16T02:51:43;3.05;;;2.00;;
67747;SDS011;54543;50.712;6.070;2024-02-16T02:54:09;3.33;;;1.83;;
67747;SDS011;54543;50.712;6.070;2024-02-16T02:56:34;2.97;;;1.60;;
67747;SDS011;54543;50.712;6.070;2024-02-16T02:59:00;2.85;;;1.80;;
67747;SDS011;54543;50.712;6.070;2024-02-16T03:01:25;2.47;;;1.98;;
67747;SDS011;54543;50.712;6.070;2024-02-16T03:03:51;2.83;;;1.70;;
67747;SDS011;54543;50.712;6.070;2024-02-16T03:06:17;2.72;;;1.73;;
67747;SDS011;54543;50.712;6.070;2024-02-16T03:08:44;2.63;;;1.73;;
67747;SDS011;54543;50.712;6.070;2024-02-16T03:11:10;3.90;;;1.98;;
67747;SDS011;54543;50.712;6.070;2024-02-16T03:13:35;2.67;;;1.73;;
67747;SDS011;54543;50.712;6.070;2024-02-16T03:16:01;2.83;;;1.63;;
67747;SDS011;54543;50.712;6.070;2024-02-16T03:18:30;2.13;;;1.50;;
67747;SDS011;54543;50.712;6.070;2024-02-16T03:20:56;2.03;;;1.30;;
67747;SDS011;54543;50.712;6.070;2024-02-16T03:23:23;3.45;;;1.70;;
67747;SDS011;54543;50.712;6.070;2024-02-16T03:25:48;2.55;;;1.60;;
67747;SDS011;54543;50.712;6.070;2024-02-16T03:28:14;2.25;;;1.58;;
67747;SDS011;54543;50.712;6.070;2024-02-16T03:30:40;2.03;;;1.42;;
67747;SDS011;54543;50.712;6.070;2024-02-16T03:33:07;2.35;;;1.40;;
67747;SDS011;54543;50.712;6.070;2024-02-16T03:35:33;2.85;;;1.65;;
67747;SDS011;54543;50.712;6.070;2024-02-16T03:38:00;3.50;;;1.60;;
67747;SDS011;54543;50.712;6.070;2024-02-16T03:40:26;2.85;;;1.67;;
67747;SDS011;54543;50.712;6.070;2024-02-16T03:42:52;3.17;;;1.80;;
67747;SDS011;54543;50.712;6.070;2024-02-16T03:45:18;2.65;;;1.67;;
67747;SDS011;54543;50.712;6.070;2024-02-16T03:47:43;3.30;;;1.70;;
67747;SDS011;54543;50.712;6.070;2024-02-16T03:50:10;3.03;;;1.70;;
67747;SDS011;54543;50.712;6.070;2024-02-16T03:52:36;3.20;;;1.98;;
67747;SDS011;54543;50.712;6.070;2024-02-16T03:55:02;3.50;;;1.88;;
67747;SDS011;54543;50.712;6.070;2024-02-16T03:57:29;2.50;;;1.67;;
67747;SDS011;54543;50.712;6.070;2024-02-16T03:59:56;2.78;;;1.70;;
67747;SDS011;54543;50.712;6.070;2024-02-16T04:02:22;2.50;;;1.70;;
67747;SDS011;54543;50.712;6.070;2024-02-16T04:04:47;2.25;;;1.70;;
67747;SDS011;54543;50.712;6.070;2024-02-16T04:07:13;3.03;;;1.60;;
67747;SDS011;54543;50.712;6.070;2024-02-16T04:09:39;4.15;;;2.03;;
67747;SDS011;54543;50.712;6.070;2024-02-16T04:12:05;2.95;;;1.60;;
67747;SDS011;54543;50.712;6.070;2024-02-16T04:14:31;2.17;;;1.52;;
67747;SDS011;54543;50.712;6.070;2024-02-16T04:16:57;2.70;;;1.88;;
67747;SDS011;54543;50.712;6.070;2024-02-16T04:19:24;2.38;;;1.50;;
67747;SDS011;54543;50.712;6.070;2024-02-16T04:21:50;2.20;;;1.60;;
67747;SDS011;54543;50.712;6.070;2024-02-16T04:24:16;3.28;;;1.42;;
67747;SDS011;54543;50.712;6.070;2024-02-16T04:26:42;2.80;;;1.80;;
67747;SDS011;54543;50.712;6.070;2024-02-16T04:29:07;2.33;;;1.50;;
67747;SDS011;54543;50.712;6.070;2024-02-16T04:31:33;1.98;;;1.60;;
67747;SDS011;54543;50.712;6.070;2024-02-16T04:33:58;2.58;;;1.70;;
67747;SDS011;54543;50.712;6.070;2024-02-16T04:36:24;3.30;;;1.55;;
67747;SDS011;54543;50.712;6.070;2024-02-16T04:38:50;2.92;;;1.65;;
67747;SDS011;54543;50.712;6.070;2024-02-16T04:41:16;3.25;;;1.92;;
67747;SDS011;54543;50.712;6.070;2024-02-16T04:43:41;2.20;;;1.50;;
67747;SDS011;54543;50.712;6.070;2024-02-16T04:46:07;3.22;;;1.80;;
67747;SDS011;54543;50.712;6.070;2024-02-16T04:48:38;2.25;;;1.63;;
67747;SDS011;54543;50.712;6.070;2024-02-16T04:51:04;3.22;;;1.80;;
67747;SDS011;54543;50.712;6.070;2024-02-16T04:53:29;2.28;;;1.58;;
67747;SDS011;54543;50.712;6.070;2024-02-16T04:55:55;3.42;;;1.67;;
67747;SDS011;54543;50.712;6.070;2024-02-16T04:58:20;3.40;;;1.67;;
67747;SDS011;54543;50.712;6.070;2024-02-16T05:00:47;2.45;;;1.55;;
67747;SDS011;54543;50.712;6.070;2024-02-16T05:03:12;2.50;;;1.65;;
67747;SDS011;54543;50.712;6.070;2024-02-16T05:05:38;4.70;;;2.55;;
67747;SDS011;54543;50.712;6.070;2024-02-16T05:08:04;6.53;;;2.78;;
67747;SDS011;54543;50.712;6.070;2024-02-16T05:10:30;10.23;;;6.78;;
67747;SDS011;54543;50.712;6.070;2024-02-16T05:12:56;8.57;;;5.80;;
67747;SDS011;54543;50.712;6.070;2024-02-16T05:15:24;14.52;;;9.65;;
67747;SDS011;54543;50.712;6.070;2024-02-16T05:17:50;14.05;;;10.02;;
67747;SDS011;54543;50.712;6.070;2024-02-16T05:20:16;15.70;;;10.73;;
67747;SDS011;54543;50.712;6.070;2024-02-16T05:22:42;9.88;;;6.57;;
67747;SDS011;54543;50.712;6.070;2024-02-16T05:25:09;13.32;;;9.80;;
67747;SDS011;54543;50.712;6.070;2024-02-16T05:27:35;10.70;;;7.00;;
67747;SDS011;54543;50.712;6.070;2024-02-16T05:30:02;12.23;;;9.55;;
67747;SDS011;54543;50.712;6.070;2024-02-16T05:32:29;10.90;;;7.18;;
67747;SDS011;54543;50.712;6.070;2024-02-16T05:34:55;8.90;;;6.38;;
67747;SDS011;54543;50.712;6.070;2024-02-16T05:37:20;7.53;;;4.97;;
67747;SDS011;54543;50.712;6.070;2024-02-16T05:39:47;6.55;;;4.20;;
67747;SDS011;54543;50.712;6.070;2024-02-16T05:42:20;8.43;;;5.97;;
67747;SDS011;54543;50.712;6.070;2024-02-16T05:44:49;8.13;;;4.88;;
67747;SDS011;54543;50.712;6.070;2024-02-16T05:47:15;6.20;;;3.75;;
67747;SDS011;54543;50.712;6.070;2024-02-16T05:49:41;5.60;;;3.38;;
67747;SDS011;54543;50.712;6.070;2024-02-16T05:52:06;4.50;;;2.70;;
67747;SDS011;54543;50.712;6.070;2024-02-16T05:54:46;4.18;;;2.47;;
67747;SDS011;54543;50.712;6.070;2024-02-16T05:57:15;4.93;;;2.58;;
67747;SDS011;54543;50.712;6.070;2024-02-16T05:59:42;2.85;;;2.00;;
67747;SDS011;54543;50.712;6.070;2024-02-16T06:02:08;5.50;;;3.30;;
67747;SDS011;54543;50.712;6.070;2024-02-16T06:04:33;4.25;;;2.72;;
67747;SDS011;54543;50.712;6.070;2024-02-16T06:06:59;6.18;;;3.50;;
67747;SDS011;54543;50.712;6.070;2024-02-16T06:09:25;5.88;;;3.15;;
67747;SDS011;54543;50.712;6.070;2024-02-16T06:11:51;6.07;;;3.35;;
67747;SDS011;54543;50.712;6.070;2024-02-16T06:14:17;20.70;;;13.23;;
67747;SDS011;54543;50.712;6.070;2024-02-16T06:16:44;23.08;;;15.07;;
67747;SDS011;54543;50.712;6.070;2024-02-16T06:19:11;13.43;;;9.45;;
67747;SDS011;54543;50.712;6.070;2024-02-16T06:21:37;7.45;;;5.22;;
67747;SDS011;54543;50.712;6.070;2024-02-16T06:24:03;9.25;;;4.50;;
67747;SDS011;54543;50.712;6.070;2024-02-16T06:26:29;5.50;;;3.20;;
67747;SDS011;54543;50.712;6.070;2024-02-16T06:28:55;4.60;;;2.80;;
67747;SDS011;54543;50.712;6.070;2024-02-16T06:31:21;6.75;;;4.28;;
67747;SDS011;54543;50.712;6.070;2024-02-16T06:33:46;6.30;;;4.15;;
67747;SDS011;54543;50.712;6.070;2024-02-16T06:36:12;5.68;;;3.58;;
67747;SDS011;54543;50.712;6.070;2024-02-16T06:38:38;5.05;;;3.13;;
67747;SDS011;54543;50.712;6.070;2024-02-16T06:41:03;3.40;;;2.53;;
67747;SDS011;54543;50.712;6.070;2024-02-16T06:43:29;4.95;;;3.05;;
67747;SDS011;54543;50.712;6.070;2024-02-16T06:45:55;4.75;;;2.50;;
67747;SDS011;54543;50.712;6.070;2024-02-16T06:48:23;3.85;;;2.15;;
67747;SDS011;54543;50.712;6.070;2024-02-16T06:53:17;4.03;;;2.15;;
67747;SDS011;54543;50.712;6.070;2024-02-16T06:55:43;4.90;;;2.72;;
67747;SDS011;54543;50.712;6.070;2024-02-16T06:58:10;4.72;;;2.50;;
67747;SDS011;54543;50.712;6.070;2024-02-16T07:00:35;3.83;;;2.30;;
67747;SDS011;54543;50.712;6.070;2024-02-16T07:03:01;3.25;;;2.30;;
67747;SDS011;54543;50.712;6.070;2024-02-16T07:05:26;5.57;;;2.30;;
67747;SDS011;54543;50.712;6.070;2024-02-16T07:07:53;5.07;;;2.72;;
67747;SDS011;54543;50.712;6.070;2024-02-16T07:10:19;5.57;;;2.75;;
67747;SDS011;54543;50.712;6.070;2024-02-16T07:12:44;5.90;;;2.85;;
67747;SDS011;54543;50.712;6.070;2024-02-16T07:15:11;5.53;;;3.15;;
67747;SDS011;54543;50.712;6.070;2024-02-16T07:17:37;6.15;;;3.85;;
67747;SDS011;54543;50.712;6.070;2024-02-16T07:20:03;5.55;;;3.15;;
67747;SDS011;54543;50.712;6.070;2024-02-16T07:22:30;3.88;;;2.58;;
67747;SDS011;54543;50.712;6.070;2024-02-16T07:24:57;4.93;;;2.33;;
67747;SDS011;54543;50.712;6.070;2024-02-16T07:27:25;4.13;;;2.72;;
67747;SDS011;54543;50.712;6.070;2024-02-16T07:29:51;3.97;;;2.20;;
67747;SDS011;54543;50.712;6.070;2024-02-16T07:32:16;4.20;;;2.20;;
67747;SDS011;54543;50.712;6.070;2024-02-16T07:34:45;2.97;;;2.20;;
67747;SDS011;54543;50.712;6.070;2024-02-16T07:37:12;4.72;;;1.90;;
67747;SDS011;54543;50.712;6.070;2024-02-16T07:39:38;4.55;;;1.80;;
67747;SDS011;54543;50.712;6.070;2024-02-16T07:42:05;3.92;;;2.55;;
67747;SDS011;54543;50.712;6.070;2024-02-16T07:44:35;3.15;;;2.00;;
67747;SDS011;54543;50.712;6.070;2024-02-16T07:47:01;4.88;;;2.22;;
67747;SDS011;54543;50.712;6.070;2024-02-16T07:49:27;3.85;;;2.40;;
67747;SDS011;54543;50.712;6.070;2024-02-16T07:51:53;3.25;;;2.00;;
67747;SDS011;54543;50.712;6.070;2024-02-16T07:54:18;4.13;;;2.42;;
67747;SDS011;54543;50.712;6.070;2024-02-16T07:56:44;4.50;;;2.22;;
67747;SDS011;54543;50.712;6.070;2024-02-16T07:59:09;3.55;;;2.17;;
67747;SDS011;54543;50.712;6.070;2024-02-16T08:01:35;5.60;;;2.33;;
67747;SDS011;54543;50.712;6.070;2024-02-16T08:04:01;5.25;;;2.33;;
67747;SDS011;54543;50.712;6.070;2024-02-16T08:06:26;5.10;;;2.50;;
67747;SDS011;54543;50.712;6.070;2024-02-16T08:08:53;3.90;;;2.40;;
67747;SDS011;54543;50.712;6.070;2024-02-16T08:11:19;4.38;;;2.30;;
67747;SDS011;54543;50.712;6.070;2024-02-16T08:13:45;3.47;;;2.17;;
67747;SDS011;54543;50.712;6.070;2024-02-16T08:16:11;3.55;;;2.10;;
67747;SDS011;54543;50.712;6.070;2024-02-16T08:18:37;3.88;;;2.00;;
67747;SDS011;54543;50.712;6.070;2024-02-16T08:21:02;4.85;;;2.00;;
67747;SDS011;54543;50.712;6.070;2024-02-16T08:23:28;2.92;;;1.90;;
67747;SDS011;54543;50.712;6.070;2024-02-16T08:25:54;3.42;;;1.98;;
67747;SDS011;54543;50.712;6.070;2024-02-16T08:28:19;2.88;;;1.60;;
67747;SDS011;54543;50.712;6.070;2024-02-16T08:30:46;3.78;;;2.03;;
67747;SDS011;54543;50.712;6.070;2024-02-16T08:33:11;3.42;;;1.80;;
67747;SDS011;54543;50.712;6.070;2024-02-16T08:35:38;3.42;;;2.03;;
67747;SDS011;54543;50.712;6.070;2024-02-16T08:38:05;3.67;;;2.22;;
67747;SDS011;54543;50.712;6.070;2024-02-16T08:40:35;3.70;;;1.92;;
67747;SDS011;54543;50.712;6.070;2024-02-16T08:43:07;3.90;;;1.88;;
67747;SDS011;54543;50.712;6.070;2024-02-16T08:45:33;4.60;;;1.95;;
67747;SDS011;54543;50.712;6.070;2024-02-16T08:47:59;3.70;;;1.98;;
67747;SDS011;54543;50.712;6.070;2024-02-16T08:50:27;3.45;;;1.90;;
67747;SDS011;54543;50.712;6.070;2024-02-16T08:52:52;2.60;;;1.70;;
67747;SDS011;54543;50.712;6.070;2024-02-16T08:55:19;2.80;;;1.70;;
67747;SDS011;54543;50.712;6.070;2024-02-16T08:57:45;2.97;;;1.98;;
67747;SDS011;54543;50.712;6.070;2024-02-16T09:00:10;3.08;;;1.70;;
67747;SDS011;54543;50.712;6.070;2024-02-16T09:02:37;3.58;;;1.80;;
67747;SDS011;54543;50.712;6.070;2024-02-16T09:05:03;4.88;;;2.00;;
67747;SDS011;54543;50.712;6.070;2024-02-16T09:07:29;2.90;;;2.03;;
67747;SDS011;54543;50.712;6.070;2024-02-16T09:09:55;4.30;;;2.10;;
67747;SDS011;54543;50.712;6.070;2024-02-16T09:12:21;2.10;;;1.67;;
67747;SDS011;54543;50.712;6.070;2024-02-16T09:14:47;4.75;;;1.73;;
67747;SDS011;54543;50.712;6.070;2024-02-16T09:17:13;3.22;;;1.90;;
67747;SDS011;54543;50.712;6.070;2024-02-16T09:19:38;2.95;;;2.13;;
67747;SDS011;54543;50.712;6.070;2024-02-16T09:22:04;3.50;;;1.73;;
67747;SDS011;54543;50.712;6.070;2024-02-16T09:24:31;4.13;;;2.15;;
67747;SDS011;54543;50.712;6.070;2024-02-16T09:26:57;3.25;;;1.88;;
67747;SDS011;54543;50.712;6.070;2024-02-16T09:29:26;2.92;;;1.90;;
67747;SDS011;54543;50.712;6.070;2024-02-16T09:31:52;6.28;;;1.90;;
67747;SDS011;54543;50.712;6.070;2024-02-16T09:34:17;3.58;;;1.98;;
67747;SDS011;54543;50.712;6.070;2024-02-16T09:36:43;3.20;;;1.95;;
67747;SDS011;54543;50.712;6.070;2024-02-16T09:39:09;3.33;;;2.17;;
67747;SDS011;54543;50.712;6.070;2024-02-16T09:41:35;3.00;;;1.73;;
67747;SDS011;54543;50.712;6.070;2024-02-16T09:44:03;5.25;;;1.92;;
67747;SDS011;54543;50.712;6.070;2024-02-16T09:46:29;3.40;;;2.30;;
67747;SDS011;54543;50.712;6.070;2024-02-16T09:48:59;4.20;;;1.98;;
67747;SDS011;54543;50.712;6.070;2024-02-16T09:51:27;3.67;;;1.70;;
67747;SDS011;54543;50.712;6.070;2024-02-16T09:53:53;4.25;;;2.00;;
67747;SDS011;54543;50.712;6.070;2024-02-16T09:56:22;4.18;;;1.88;;
67747;SDS011;54543;50.712;6.070;2024-02-16T09:58:50;4.30;;;1.85;;
67747;SDS011;54543;50.712;6.070;2024-02-16T10:01:17;4.05;;;2.25;;
67747;SDS011;54543;50.712;6.070;2024-02-16T10:03:44;4.35;;;2.10;;
67747;SDS011;54543;50.712;6.070;2024-02-16T10:06:10;3.47;;;1.77;;
67747;SDS011;54543;50.712;6.070;2024-02-16T10:08:49;3.22;;;2.00;;
67747;SDS011;54543;50.712;6.070;2024-02-16T10:11:17;3.08;;;1.80;;
67747;SDS011;54543;50.712;6.070;2024-02-16T10:13:59;6.88;;;2.20;;
67747;SDS011;54543;50.712;6.070;2024-02-16T10:16:27;3.38;;;1.77;;
67747;SDS011;54543;50.712;6.070;2024-02-16T10:18:55;4.88;;;1.70;;
67747;SDS011;54543;50.712;6.070;2024-02-16T10:21:25;2.95;;;2.00;;
67747;SDS011;54543;50.712;6.070;2024-02-16T10:24:10;4.65;;;2.40;;
67747;SDS011;54543;50.712;6.070;2024-02-16T10:26:37;4.57;;;2.20;;
67747;SDS011;54543;50.712;6.070;2024-02-16T10:29:07;4.72;;;2.30;;
67747;SDS011;54543;50.712;6.070;2024-02-16T10:31:34;6.85;;;2.58;;
67747;SDS011;54543;50.712;6.070;2024-02-16T10:34:03;3.13;;;2.17;;
67747;SDS011;54543;50.712;6.070;2024-02-16T10:36:38;3.95;;;2.35;;
67747;SDS011;54543;50.712;6.070;2024-02-16T10:39:05;4.15;;;2.25;;
67747;SDS011;54543;50.712;6.070;2024-02-16T10:41:40;5.75;;;2.55;;
67747;SDS011;54543;50.712;6.070;2024-02-16T10:44:07;3.03;;;1.90;;
67747;SDS011;54543;50.712;6.070;2024-02-16T10:46:33;4.25;;;2.15;;
67747;SDS011;54543;50.712;6.070;2024-02-16T10:49:00;5.00;;;2.33;;
67747;SDS011;54543;50.712;6.070;2024-02-16T10:54:01;4.25;;;2.30;;
67747;SDS011;54543;50.712;6.070;2024-02-16T10:56:34;7.38;;;3.08;;
67747;SDS011;54543;50.712;6.070;2024-02-16T10:59:03;6.32;;;2.58;;
67747;SDS011;54543;50.712;6.070;2024-02-16T11:01:37;4.25;;;2.33;;
67747;SDS011;54543;50.712;6.070;2024-02-16T11:04:07;6.72;;;3.10;;
67747;SDS011;54543;50.712;6.070;2024-02-16T11:09:28;5.18;;;2.50;;
67747;SDS011;54543;50.712;6.070;2024-02-16T11:12:01;5.82;;;3.03;;
67747;SDS011;54543;50.712;6.070;2024-02-16T11:14:35;5.13;;;3.38;;
67747;SDS011;54543;50.712;6.070;2024-02-16T11:17:14;4.80;;;2.97;;
67747;SDS011;54543;50.712;6.070;2024-02-16T11:19:41;6.50;;;2.88;;
67747;SDS011;54543;50.712;6.070;2024-02-16T11:22:09;6.32;;;3.00;;
67747;SDS011;54543;50.712;6.070;2024-02-16T11:24:37;5.95;;;3.53;;
67747;SDS011;54543;50.712;6.070;2024-02-16T11:27:10;5.68;;;2.90;;
67747;SDS011;54543;50.712;6.070;2024-02-16T11:29:36;4.35;;;3.17;;
67747;SDS011;54543;50.712;6.070;2024-02-16T11:32:03;9.48;;;3.50;;
67747;SDS011;54543;50.712;6.070;2024-02-16T11:34:30;6.93;;;3.60;;
67747;SDS011;54543;50.712;6.070;2024-02-16T11:36:57;5.47;;;3.13;;
67747;SDS011;54543;50.712;6.070;2024-02-16T11:39:23;5.13;;;3.08;;
67747;SDS011;54543;50.712;6.070;2024-02-16T11:44:52;5.78;;;3.10;;
67747;SDS011;54543;50.712;6.070;2024-02-16T11:47:19;5.53;;;3.05;;
67747;SDS011;54543;50.712;6.070;2024-02-16T11:50:11;5.82;;;3.45;;
67747;SDS011;54543;50.712;6.070;2024-02-16T11:52:40;5.90;;;3.60;;
67747;SDS011;54543;50.712;6.070;2024-02-16T11:55:09;7.25;;;3.70;;
67747;SDS011;54543;50.712;6.070;2024-02-16T11:57:36;5.15;;;3.50;;
67747;SDS011;54543;50.712;6.070;2024-02-16T12:00:04;6.22;;;2.83;;
67747;SDS011;54543;50.712;6.070;2024-02-16T12:02:37;5.35;;;2.97;;
67747;SDS011;54543;50.712;6.070;2024-02-16T12:05:02;5.07;;;3.28;;
67747;SDS011;54543;50.712;6.070;2024-02-16T12:07:29;6.38;;;3.90;;
67747;SDS011;54543;50.712;6.070;2024-02-16T12:09:58;5.60;;;3.33;;
67747;SDS011;54543;50.712;6.070;2024-02-16T12:12:26;9.40;;;4.20;;
67747;SDS011;54543;50.712;6.070;2024-02-16T12:14:53;5.38;;;3.17;;
67747;SDS011;54543;50.712;6.070;2024-02-16T12:17:19;15.40;;;9.02;;
67747;SDS011;54543;50.712;6.070;2024-02-16T12:19:45;11.15;;;7.15;;
67747;SDS011;54543;50.712;6.070;2024-02-16T12:22:21;8.82;;;4.72;;
67747;SDS011;54543;50.712;6.070;2024-02-16T12:24:47;8.05;;;4.40;;
67747;SDS011;54543;50.712;6.070;2024-02-16T12:27:14;5.93;;;4.15;;
67747;SDS011;54543;50.712;6.070;2024-02-16T12:29:43;5.80;;;3.80;;
67747;SDS011;54543;50.712;6.070;2024-02-16T12:32:09;8.20;;;4.70;;
67747;SDS011;54543;50.712;6.070;2024-02-16T12:34:37;9.15;;;6.20;;
67747;SDS011;54543;50.712;6.070;2024-02-16T12:37:06;27.35;;;15.50;;
67747;SDS011;54543;50.712;6.070;2024-02-16T12:39:36;60.25;;;31.17;;
67747;SDS011;54543;50.712;6.070;2024-02-16T12:42:02;74.85;;;38.78;;
67747;SDS011;54543;50.712;6.070;2024-02-16T12:44:28;33.08;;;20.13;;
67747;SDS011;54543;50.712;6.070;2024-02-16T12:46:53;40.40;;;22.20;;
67747;SDS011;54543;50.712;6.070;2024-02-16T12:49:19;23.67;;;13.98;;
67747;SDS011;54543;50.712;6.070;2024-02-16T12:51:48;16.75;;;11.10;;
67747;SDS011;54543;50.712;6.070;2024-02-16T12:54:16;36.80;;;27.92;;
67747;SDS011;54543;50.712;6.070;2024-02-16T12:56:44;29.80;;;26.70;;
67747;SDS011;54543;50.712;6.070;2024-02-16T12:59:10;19.23;;;16.42;;
67747;SDS011;54543;50.712;6.070;2024-02-16T13:01:37;12.43;;;11.13;;
67747;SDS011;54543;50.712;6.070;2024-02-16T13:04:03;8.90;;;7.80;;
67747;SDS011;54543;50.712;6.070;2024-02-16T13:06:30;8.38;;;6.57;;
67747;SDS011;54543;50.712;6.070;2024-02-16T13:08:56;7.60;;;6.70;;
67747;SDS011;54543;50.712;6.070;2024-02-16T13:11:21;6.65;;;5.32;;
67747;SDS011;54543;50.712;6.070;2024-02-16T13:13:47;5.32;;;4.20;;
67747;SDS011;54543;50.712;6.070;2024-02-16T13:16:13;8.82;;;4.40;;
67747;SDS011;54543;50.712;6.070;2024-02-16T13:18:39;6.38;;;4.05;;
67747;SDS011;54543;50.712;6.070;2024-02-16T13:21:06;6.18;;;3.83;;
67747;SDS011;54543;50.712;6.070;2024-02-16T13:23:31;9.43;;;4.05;;
67747;SDS011;54543;50.712;6.070;2024-02-16T13:25:57;7.72;;;3.60;;
67747;SDS011;54543;50.712;6.070;2024-02-16T13:28:22;8.18;;;3.92;;
67747;SDS011;54543;50.712;6.070;2024-02-16T13:30:49;5.22;;;3.22;;
67747;SDS011;54543;50.712;6.070;2024-02-16T13:33:15;5.43;;;3.50;;
67747;SDS011;54543;50.712;6.070;2024-02-16T13:35:40;5.63;;;3.80;;
67747;SDS011;54543;50.712;6.070;2024-02-16T13:38:06;6.20;;;3.33;;
67747;SDS011;54543;50.712;6.070;2024-02-16T13:40:32;5.90;;;3.38;;
67747;SDS011;54543;50.712;6.070;2024-02-16T13:42:59;7.40;;;3.65;;
67747;SDS011;54543;50.712;6.070;2024-02-16T13:45:45;4.65;;;3.50;;
67747;SDS011;54543;50.712;6.070;2024-02-16T13:48:13;6.38;;;3.90;;
67747;SDS011;54543;50.712;6.070;2024-02-16T13:50:39;6.38;;;3.63;;
67747;SDS011;54543;50.712;6.070;2024-02-16T13:53:05;6.70;;;3.67;;
67747;SDS011;54543;50.712;6.070;2024-02-16T13:55:30;6.60;;;3.55;;
67747;SDS011;54543;50.712;6.070;2024-02-16T13:57:56;5.32;;;4.13;;
67747;SDS011;54543;50.712;6.070;2024-02-16T14:00:21;5.63;;;3.22;;
67747;SDS011;54543;50.712;6.070;2024-02-16T14:02:48;4.70;;;3.30;;
67747;SDS011;54543;50.712;6.070;2024-02-16T14:05:13;5.88;;;3.83;;
67747;SDS011;54543;50.712;6.070;2024-02-16T14:07:40;4.85;;;3.22;;
67747;SDS011;54543;50.712;6.070;2024-02-16T14:10:06;5.00;;;3.70;;
67747;SDS011;54543;50.712;6.070;2024-02-16T14:12:32;5.03;;;3.70;;
67747;SDS011;54543;50.712;6.070;2024-02-16T14:14:57;5.53;;;3.20;;
67747;SDS011;54543;50.712;6.070;2024-02-16T14:17:23;4.93;;;3.17;;
67747;SDS011;54543;50.712;6.070;2024-02-16T14:19:48;4.57;;;3.13;;
67747;SDS011;54543;50.712;6.070;2024-02-16T14:22:14;4.85;;;2.97;;
67747;SDS011;54543;50.712;6.070;2024-02-16T14:24:39;7.32;;;3.90;;
67747;SDS011;54543;50.712;6.070;2024-02-16T14:27:05;4.90;;;3.22;;
67747;SDS011;54543;50.712;6.070;2024-02-16T14:29:30;9.18;;;4.93;;
67747;SDS011;54543;50.712;6.070;2024-02-16T14:31:56;8.98;;;4.97;;
67747;SDS011;54543;50.712;6.070;2024-02-16T14:34:21;5.13;;;3.42;;
67747;SDS011;54543;50.712;6.070;2024-02-16T14:36:47;5.88;;;3.60;;
67747;SDS011;54543;50.712;6.070;2024-02-16T14:39:13;4.60;;;3.28;;
67747;SDS011;54543;50.712;6.070;2024-02-16T14:41:40;4.88;;;2.78;;
67747;SDS011;54543;50.712;6.070;2024-02-16T14:44:06;3.90;;;2.80;;
67747;SDS011;54543;50.712;6.070;2024-02-16T14:46:31;5.07;;;2.80;;
67747;SDS011;54543;50.712;6.070;2024-02-16T14:48:57;5.55;;;3.35;;
67747;SDS011;54543;50.712;6.070;2024-02-16T14:51:22;5.43;;;3.13;;
67747;SDS011;54543;50.712;6.070;2024-02-16T14:53:48;3.22;;;2.30;;